Time;durP1;ratioP1;P1;durP2;ratioP2;P2;SDS_P1;SDS_P2;PMS_P1;PMS_P2;Temp;Humidity;BMP_temperature;BMP_pressure;BME280_temperature;BME280_humidity;BME280_pressure;Samples;Min_cycle;Max_cycle;Signal;HPM_P1;HPM_P2
2022/05/25 00:01:24;;;;;;;1.00;0.60;;;24.00;42.80;;;;;;5136926;27;20031;-38
2022/05/25 00:03:50;;;;;;;2.08;0.60;;;24.00;42.90;;;;;;5137129;27;20025;-38
2022/05/25 00:06:17;;;;;;;1.60;0.68;;;24.00;42.90;;;;;;5136997;27;20090;-39
2022/05/25 00:08:44;;;;;;;2.00;0.75;;;24.00;42.90;;;;;;5137110;27;20453;-38
2022/05/25 00:11:09;;;;;;;2.08;0.82;;;24.00;42.90;;;;;;5136980;27;20019;-38
2022/05/25 00:13:36;;;;;;;1.00;0.55;;;24.00;42.90;;;;;;5136626;27;20023;-39
2022/05/25 00:16:03;;;;;;;1.73;0.70;;;24.00;42.80;;;;;;5136905;27;20023;-39
2022/05/25 00:18:30;;;;;;;1.30;0.63;;;24.00;42.80;;;;;;5136791;27;20007;-39
2022/05/25 00:20:56;;;;;;;0.98;0.60;;;24.00;42.80;;;;;;5135529;27;20142;-38
2022/05/25 00:23:22;;;;;;;2.67;0.70;;;24.00;42.90;;;;;;5136976;27;20075;-38
2022/05/25 00:25:48;;;;;;;1.52;0.80;;;24.00;42.80;;;;;;5136271;27;20018;-38
2022/05/25 00:28:14;;;;;;;1.80;0.77;;;24.00;42.80;;;;;;5136058;27;20031;-38
2022/05/25 00:30:40;;;;;;;0.80;0.50;;;24.00;42.80;;;;;;5136340;27;20018;-42
2022/05/25 00:33:09;;;;;;;1.45;0.60;;;24.00;42.80;;;;;;5136066;27;20014;-38
2022/05/25 00:35:35;;;;;;;3.13;0.60;;;23.90;42.80;;;;;;5136044;27;20027;-38
2022/05/25 00:38:02;;;;;;;2.10;0.90;;;23.90;42.80;;;;;;5135965;27;20015;-39
2022/05/25 00:40:43;;;;;;;1.73;0.70;;;24.00;42.80;;;;;;5136092;27;20010;-38
2022/05/25 00:43:10;;;;;;;1.35;0.63;;;24.00;42.80;;;;;;5136424;27;20022;-39
2022/05/25 00:45:42;;;;;;;1.05;0.60;;;23.90;42.80;;;;;;5135849;27;20050;-38
2022/05/25 00:48:09;;;;;;;1.10;0.60;;;23.90;42.80;;;;;;5134357;27;20076;-38
2022/05/25 00:53:19;;;;;;;2.42;0.60;;;23.90;42.80;;;;;;5135312;27;20023;-39
2022/05/25 00:55:45;;;;;;;0.82;0.50;;;23.90;42.80;;;;;;5117375;27;20083;-37
2022/05/25 00:58:11;;;;;;;1.48;0.60;;;23.90;42.80;;;;;;5134335;27;20016;-37
2022/05/25 01:00:37;;;;;;;1.02;0.60;;;23.90;42.80;;;;;;5134996;27;20477;-38
2022/05/25 01:03:06;;;;;;;0.88;0.50;;;23.90;42.80;;;;;;5135215;27;20059;-37
2022/05/25 01:05:38;;;;;;;1.60;0.60;;;23.90;42.80;;;;;;5135082;27;20477;-37
2022/05/25 01:08:25;;;;;;;1.60;0.70;;;23.90;42.80;;;;;;5134909;27;20257;-37
2022/05/25 01:11:17;;;;;;;1.38;0.60;;;23.90;42.80;;;;;;5134780;27;20030;-37
2022/05/25 01:13:52;;;;;;;2.70;0.70;;;23.80;42.70;;;;;;5034948;28;20033;-37
2022/05/25 01:16:42;;;;;;;1.92;0.70;;;23.90;42.80;;;;;;5035200;28;20083;-37
2022/05/25 01:19:45;;;;;;;1.02;0.60;;;23.90;42.80;;;;;;5051470;28;20086;-37
2022/05/25 01:22:50;;;;;;;1.13;0.50;;;23.80;42.60;;;;;;5051224;28;20049;-38
2022/05/25 01:25:49;;;;;;;1.70;0.68;;;23.80;42.60;;;;;;5010072;28;20033;-37
2022/05/25 01:28:42;;;;;;;1.85;0.95;;;23.80;42.70;;;;;;5051488;28;20095;-37
2022/05/25 01:31:10;;;;;;;1.55;0.70;;;23.80;42.70;;;;;;5037677;28;20029;-37
2022/05/25 01:33:45;;;;;;;1.80;0.70;;;23.80;42.70;;;;;;5035000;28;20033;-38
2022/05/25 01:36:25;;;;;;;1.52;0.60;;;23.80;42.60;;;;;;5035462;28;20094;-38
2022/05/25 01:38:53;;;;;;;1.05;0.55;;;23.80;42.70;;;;;;5034965;28;20045;-40
2022/05/25 01:41:23;;;;;;;1.10;0.57;;;23.80;42.60;;;;;;5035330;28;20111;-38
2022/05/25 01:44:01;;;;;;;1.55;0.60;;;23.80;42.60;;;;;;5035737;28;20021;-37
2022/05/25 01:46:39;;;;;;;1.98;0.60;;;23.80;42.60;;;;;;5036290;28;20058;-42
2022/05/25 01:49:08;;;;;;;1.55;0.60;;;23.80;42.60;;;;;;5051841;28;20047;-37
2022/05/25 01:51:46;;;;;;;2.08;1.10;;;23.80;42.60;;;;;;5122742;27;20816;-38
2022/05/25 01:54:13;;;;;;;1.80;0.60;;;23.80;42.60;;;;;;5117384;27;20084;-38
2022/05/25 01:56:40;;;;;;;1.60;0.60;;;23.80;42.60;;;;;;5116743;27;20025;-38
2022/05/25 01:59:07;;;;;;;1.25;0.60;;;23.80;42.60;;;;;;5116201;27;20021;-37
2022/05/25 02:01:33;;;;;;;1.90;0.60;;;23.80;42.60;;;;;;5132721;27;20019;-37
2022/05/25 02:06:43;;;;;;;1.77;0.70;;;23.80;42.70;;;;;;5135409;27;20026;-37
2022/05/25 02:09:15;;;;;;;1.58;0.60;;;23.70;42.60;;;;;;5135910;27;20477;-39
2022/05/25 02:11:43;;;;;;;1.30;0.73;;;23.80;42.70;;;;;;5134387;27;20016;-38
2022/05/25 02:14:31;;;;;;;2.30;0.55;;;23.70;42.70;;;;;;5133058;27;20098;-38
2022/05/25 02:17:09;;;;;;;2.08;0.70;;;23.70;42.60;;;;;;5134333;27;20053;-38
2022/05/25 02:19:48;;;;;;;1.45;0.68;;;23.70;42.60;;;;;;5134666;27;20028;-38
2022/05/25 02:22:19;;;;;;;0.70;0.45;;;23.70;42.60;;;;;;5134239;27;20042;-38
2022/05/25 02:24:55;;;;;;;1.55;0.57;;;23.70;42.60;;;;;;5133225;28;20813;-38
2022/05/25 02:27:51;;;;;;;2.05;0.50;;;23.80;42.70;;;;;;5134205;27;20011;-38
2022/05/25 02:30:19;;;;;;;0.68;0.45;;;23.70;42.60;;;;;;5050731;28;20075;-38
2022/05/25 02:32:52;;;;;;;1.40;0.55;;;23.80;42.60;;;;;;5034443;28;20036;-38
2022/05/25 02:35:19;;;;;;;1.40;0.50;;;23.70;42.60;;;;;;5050662;28;20037;-38
2022/05/25 02:37:45;;;;;;;2.03;0.60;;;23.70;42.60;;;;;;5033998;28;20021;-38
2022/05/25 02:40:11;;;;;;;1.60;0.60;;;23.70;42.60;;;;;;5033976;28;20029;-38
2022/05/25 02:42:40;;;;;;;1.33;0.60;;;23.70;42.60;;;;;;5034117;28;20024;-38
2022/05/25 02:45:07;;;;;;;2.60;0.65;;;23.70;42.60;;;;;;5050528;28;20443;-39
2022/05/25 02:47:33;;;;;;;2.25;0.60;;;23.70;43.10;;;;;;5050466;28;20108;-38
2022/05/25 02:50:02;;;;;;;0.93;0.50;;;23.70;42.60;;;;;;5033848;28;20056;-38
2022/05/25 02:52:28;;;;;;;1.65;0.80;;;23.70;42.50;;;;;;5050275;28;20025;-38
2022/05/25 02:54:53;;;;;;;1.85;0.50;;;23.70;42.60;;;;;;5033816;28;20037;-38
2022/05/25 02:57:20;;;;;;;0.98;0.60;;;23.70;42.50;;;;;;5050361;28;20059;-40
2022/05/25 02:59:46;;;;;;;2.22;0.68;;;23.70;42.50;;;;;;5050806;28;20053;-38
2022/05/25 03:02:12;;;;;;;1.33;0.60;;;23.70;42.60;;;;;;5050613;28;20037;-39
2022/05/25 03:04:40;;;;;;;1.90;0.90;;;23.60;42.50;;;;;;5034490;28;20431;-38
2022/05/25 03:07:05;;;;;;;1.80;0.80;;;23.70;42.50;;;;;;5096961;28;20028;-38
2022/05/25 03:09:33;;;;;;;1.27;0.55;;;23.60;42.50;;;;;;5134524;28;20016;-38
2022/05/25 03:11:59;;;;;;;0.70;0.60;;;23.60;42.50;;;;;;5132986;28;20027;-39
2022/05/25 03:14:26;;;;;;;1.85;0.50;;;23.60;42.50;;;;;;5136526;27;20112;-38
2022/05/25 03:16:51;;;;;;;1.42;0.60;;;23.60;42.50;;;;;;5138056;27;20011;-38
2022/05/25 03:19:18;;;;;;;1.30;0.65;;;23.60;42.50;;;;;;5137992;27;20087;-38
2022/05/25 03:21:44;;;;;;;0.85;0.45;;;23.60;42.50;;;;;;5137340;27;20062;-38
2022/05/25 03:24:10;;;;;;;1.05;0.57;;;23.60;42.40;;;;;;5136212;27;20111;-38
2022/05/25 03:26:37;;;;;;;1.48;0.70;;;23.60;42.50;;;;;;5135778;27;20381;-38
2022/05/25 03:29:02;;;;;;;1.83;0.63;;;23.60;42.50;;;;;;5135858;27;20015;-38
2022/05/25 03:31:28;;;;;;;0.98;0.55;;;23.60;42.50;;;;;;5135604;27;20023;-38
2022/05/25 03:33:54;;;;;;;1.23;0.50;;;23.60;42.50;;;;;;5135701;27;20195;-38
2022/05/25 03:36:20;;;;;;;2.00;0.50;;;23.60;42.60;;;;;;5136924;27;20039;-38
2022/05/25 03:38:47;;;;;;;1.85;0.60;;;23.60;42.50;;;;;;5137109;27;20023;-38
2022/05/25 03:41:15;;;;;;;1.42;0.50;;;23.60;42.50;;;;;;5135548;27;20385;-38
2022/05/25 03:43:40;;;;;;;2.42;0.98;;;23.60;42.50;;;;;;5137267;27;20031;-39
2022/05/25 03:46:09;;;;;;;1.55;0.60;;;23.60;42.60;;;;;;5137241;27;20019;-38
2022/05/25 03:48:35;;;;;;;2.35;0.63;;;23.60;42.50;;;;;;5137443;27;20011;-38
2022/05/25 03:51:02;;;;;;;1.25;0.40;;;23.60;42.50;;;;;;5135639;27;20023;-38
2022/05/25 03:53:28;;;;;;;1.30;0.50;;;23.60;42.50;;;;;;5137097;27;20098;-38
2022/05/25 03:55:54;;;;;;;1.60;0.60;;;23.60;42.50;;;;;;5136278;27;20026;-40
2022/05/25 03:58:20;;;;;;;0.85;0.40;;;23.60;42.40;;;;;;5137013;27;20121;-38
2022/05/25 04:00:46;;;;;;;1.85;0.57;;;23.60;42.40;;;;;;5137745;27;20051;-39
2022/05/25 04:03:13;;;;;;;0.73;0.50;;;23.60;42.40;;;;;;5137226;27;20061;-38
2022/05/25 04:05:40;;;;;;;1.73;0.77;;;23.60;42.40;;;;;;5137827;27;20011;-38
2022/05/25 04:08:06;;;;;;;1.77;0.73;;;23.60;42.40;;;;;;5137489;27;20462;-38
2022/05/25 04:10:33;;;;;;;1.02;0.50;;;23.60;42.30;;;;;;5137149;27;20015;-38
2022/05/25 04:13:01;;;;;;;1.27;0.50;;;23.70;42.20;;;;;;5136965;27;20022;-38
2022/05/25 04:15:28;;;;;;;1.42;0.60;;;23.60;42.20;;;;;;5136461;27;20110;-38
2022/05/25 04:17:54;;;;;;;1.63;0.60;;;23.70;42.10;;;;;;5136678;27;20012;-39
2022/05/25 04:20:21;;;;;;;1.50;0.60;;;23.80;42.10;;;;;;5135797;27;20060;-38
2022/05/25 04:22:47;;;;;;;0.90;0.40;;;23.80;41.90;;;;;;5136160;27;20023;-38
2022/05/25 04:25:14;;;;;;;1.17;0.60;;;23.80;41.80;;;;;;5134715;27;20350;-39
2022/05/25 04:27:41;;;;;;;1.65;0.65;;;23.80;41.70;;;;;;5136089;27;20369;-38
2022/05/25 04:30:09;;;;;;;1.73;0.70;;;23.90;41.60;;;;;;5134510;27;20437;-38
2022/05/25 04:32:35;;;;;;;1.52;0.50;;;24.00;41.40;;;;;;5136051;27;20030;-38
2022/05/25 04:35:02;;;;;;;1.35;0.50;;;24.10;41.20;;;;;;5136081;27;20019;-39
2022/05/25 04:40:12;;;;;;;1.05;0.40;;;24.20;41.00;;;;;;5135840;27;20038;-38
2022/05/25 04:42:39;;;;;;;0.85;0.45;;;24.30;40.70;;;;;;5135654;27;20425;-39
2022/05/25 04:45:06;;;;;;;1.88;0.57;;;24.40;40.70;;;;;;5135744;27;20011;-40
2022/05/25 04:47:33;;;;;;;0.55;0.30;;;24.40;40.60;;;;;;5134477;27;20015;-39
2022/05/25 04:49:59;;;;;;;1.15;0.55;;;24.50;40.40;;;;;;5136438;27;20478;-38
2022/05/25 04:52:25;;;;;;;0.68;0.30;;;24.60;40.30;;;;;;5134877;27;20030;-39
2022/05/25 04:54:50;;;;;;;1.05;0.60;;;24.70;40.20;;;;;;5135543;27;20011;-39
2022/05/25 04:57:19;;;;;;;1.35;0.50;;;24.80;40.00;;;;;;5135307;27;20015;-39
2022/05/25 04:59:46;;;;;;;1.83;0.60;;;24.80;39.80;;;;;;5136556;27;20022;-38
2022/05/25 05:02:12;;;;;;;0.65;0.40;;;24.90;39.70;;;;;;5137710;27;20027;-38
2022/05/25 05:04:38;;;;;;;1.00;0.40;;;25.00;39.50;;;;;;5137192;27;20011;-38
2022/05/25 05:07:04;;;;;;;0.98;0.60;;;25.10;39.40;;;;;;5136924;27;20030;-41
2022/05/25 05:09:38;;;;;;;0.80;0.60;;;25.20;39.20;;;;;;5137263;27;20139;-40
2022/05/25 05:12:04;;;;;;;1.95;0.50;;;25.20;39.00;;;;;;5137703;27;20023;-39
2022/05/25 05:14:30;;;;;;;1.38;0.60;;;25.30;38.80;;;;;;5135976;27;20011;-37
2022/05/25 05:17:00;;;;;;;1.25;0.40;;;25.40;38.70;;;;;;5136024;27;20027;-37
2022/05/25 05:19:26;;;;;;;1.75;0.40;;;25.50;38.50;;;;;;5135126;27;20016;-37
2022/05/25 05:21:59;;;;;;;0.93;0.38;;;25.60;38.90;;;;;;5135157;27;20176;-36
2022/05/25 05:24:26;;;;;;;0.65;0.43;;;25.70;38.20;;;;;;5135200;27;20019;-36
2022/05/25 05:26:51;;;;;;;1.58;0.47;;;25.80;38.00;;;;;;5134882;27;20018;-37
2022/05/25 05:29:20;;;;;;;1.00;0.52;;;25.90;37.80;;;;;;5133834;27;20086;-37
2022/05/25 05:31:46;;;;;;;0.88;0.40;;;26.00;37.70;;;;;;5133813;27;20106;-41
2022/05/25 05:34:12;;;;;;;0.93;0.50;;;26.10;37.50;;;;;;5134899;27;20066;-37
2022/05/25 05:36:52;;;;;;;1.15;0.50;;;26.20;37.40;;;;;;5135835;27;20025;-37
2022/05/25 05:39:19;;;;;;;0.52;0.40;;;26.30;37.20;;;;;;5134788;27;20015;-42
2022/05/25 05:42:06;;;;;;;0.70;0.43;;;26.40;37.10;;;;;;5134588;27;20049;-37
2022/05/25 05:44:38;;;;;;;0.82;0.40;;;26.40;36.90;;;;;;5135809;27;20087;-38
2022/05/25 05:47:06;;;;;;;0.63;0.30;;;26.60;36.70;;;;;;5135540;27;20376;-38
2022/05/25 05:49:31;;;;;;;0.73;0.30;;;26.80;36.50;;;;;;5135182;27;20004;-37
2022/05/25 05:51:57;;;;;;;1.00;0.50;;;26.90;36.30;;;;;;5134407;27;20026;-37
2022/05/25 05:54:23;;;;;;;0.98;0.40;;;27.00;36.10;;;;;;5135267;27;20007;-37
2022/05/25 05:56:49;;;;;;;1.58;0.75;;;27.10;35.90;;;;;;5135495;27;20022;-37
2022/05/25 05:59:15;;;;;;;1.45;0.57;;;27.30;35.80;;;;;;5134798;27;20011;-37
2022/05/25 06:01:42;;;;;;;1.23;0.60;;;27.40;35.50;;;;;;5135971;27;20015;-37
2022/05/25 06:04:09;;;;;;;1.55;0.50;;;27.50;35.30;;;;;;5137016;27;20047;-37
2022/05/25 06:06:34;;;;;;;1.15;0.32;;;27.60;35.10;;;;;;5134318;27;20469;-38
2022/05/25 06:09:01;;;;;;;1.75;0.50;;;27.70;34.90;;;;;;5133673;27;20015;-35
2022/05/25 06:11:27;;;;;;;1.15;0.40;;;27.90;34.80;;;;;;5134890;27;20523;-36
2022/05/25 06:13:56;;;;;;;1.00;0.40;;;27.90;34.70;;;;;;5135998;27;20011;-37
2022/05/25 06:22:01;;;;;;;1.75;0.40;;;28.20;34.20;;;;;;5130912;27;20477;-36
2022/05/25 06:24:30;;;;;;;0.45;0.30;;;28.30;34.10;;;;;;5133723;27;20023;-36
2022/05/25 06:26:56;;;;;;;;;;;28.40;34.00;;;;;;5133804;28;20037;-38
2022/05/25 06:29:23;;;;;;;1.10;0.50;;;28.40;33.80;;;;;;5134647;27;19999;-35
2022/05/25 06:31:51;;;;;;;3.53;0.85;;;28.50;33.70;;;;;;5133090;28;20102;-34
2022/05/25 06:34:17;;;;;;;1.00;0.45;;;28.60;33.60;;;;;;5133756;27;20067;-35
2022/05/25 06:36:46;;;;;;;5.30;0.60;;;28.70;33.50;;;;;;5133285;28;20461;-35
2022/05/25 06:39:11;;;;;;;2.10;0.50;;;28.80;33.40;;;;;;5115310;28;20109;-35
2022/05/25 06:41:37;;;;;;;3.78;0.45;;;28.90;33.30;;;;;;5133642;28;20057;-35
2022/05/25 06:44:03;;;;;;;1.55;0.50;;;28.90;33.10;;;;;;5133922;27;20023;-37
2022/05/25 06:46:30;;;;;;;1.48;0.40;;;29.00;33.10;;;;;;5132374;28;20015;-37
2022/05/25 06:48:57;;;;;;;2.10;0.50;;;29.10;33.00;;;;;;5136057;27;20130;-38
2022/05/25 06:51:28;;;;;;;1.75;0.60;;;29.10;33.00;;;;;;5137774;27;20011;-39
2022/05/25 06:53:55;;;;;;;1.52;0.70;;;29.20;32.80;;;;;;5136551;27;20386;-37
2022/05/25 06:56:22;;;;;;;3.28;1.00;;;29.20;32.70;;;;;;5137071;27;20048;-39
2022/05/25 06:58:48;;;;;;;3.05;1.67;;;29.20;32.70;;;;;;5136321;27;20485;-38
2022/05/25 07:01:15;;;;;;;3.15;1.50;;;29.30;32.60;;;;;;5136930;27;20030;-38
2022/05/25 07:03:40;;;;;;;4.03;2.00;;;29.30;32.50;;;;;;5138036;27;20039;-37
2022/05/25 07:06:07;;;;;;;5.75;2.80;;;29.40;32.50;;;;;;5137224;27;20023;-37
2022/05/25 07:08:33;;;;;;;7.03;3.97;;;29.50;32.40;;;;;;5136998;27;20017;-38
2022/05/25 07:11:00;;;;;;;8.27;4.57;;;29.50;32.30;;;;;;5137456;27;20094;-37
2022/05/25 07:13:26;;;;;;;15.38;7.93;;;29.50;32.30;;;;;;5138105;27;20102;-38
2022/05/25 07:16:01;;;;;;;20.35;10.68;;;29.60;32.30;;;;;;5137736;27;20023;-39
2022/05/25 07:18:28;;;;;;;26.75;13.80;;;29.60;32.20;;;;;;5136884;27;20063;-38
2022/05/25 07:21:04;;;;;;;44.25;24.40;;;29.60;32.20;;;;;;5137967;27;20051;-37
2022/05/25 07:23:31;;;;;;;70.05;36.28;;;29.60;32.30;;;;;;5138108;27;20011;-37
2022/05/25 07:25:57;;;;;;;85.82;43.13;;;29.50;32.50;;;;;;5137549;27;20043;-38
2022/05/25 07:28:23;;;;;;;97.43;46.30;;;29.50;32.80;;;;;;5135800;27;20064;-38
2022/05/25 07:30:48;;;;;;;107.13;49.53;;;28.50;34.20;;;;;;5136767;27;20438;-38
2022/05/25 07:33:15;;;;;;;101.53;45.90;;;26.80;36.60;;;;;;5137299;27;20015;-38
2022/05/25 07:35:40;;;;;;;94.20;42.10;;;26.20;37.60;;;;;;5137863;27;20130;-39
2022/05/25 07:38:06;;;;;;;77.80;35.22;;;26.10;37.70;;;;;;5135776;27;20050;-37
2022/05/25 07:40:35;;;;;;;77.00;34.80;;;25.70;38.40;;;;;;5118644;27;20023;-36
2022/05/25 07:43:19;;;;;;;60.60;25.52;;;25.90;38.50;;;;;;5118096;27;20019;-35
2022/05/25 07:45:45;;;;;;;54.47;25.35;;;25.90;38.70;;;;;;5118067;27;20027;-36
2022/05/25 07:48:12;;;;;;;55.30;23.35;;;25.80;39.10;;;;;;5136523;27;20011;-37
2022/05/25 07:50:38;;;;;;;48.67;21.70;;;26.20;38.50;;;;;;5136027;27;20361;-37
2022/05/25 07:53:03;;;;;;;46.30;20.95;;;27.20;37.20;;;;;;5136209;27;20557;-37
2022/05/25 07:55:31;;;;;;;44.75;19.02;;;27.80;36.20;;;;;;5135542;27;20023;-37
2022/05/25 07:57:56;;;;;;;42.58;18.48;;;28.30;35.40;;;;;;5135078;27;20099;-37
2022/05/25 08:00:25;;;;;;;40.00;18.20;;;28.80;34.60;;;;;;5134282;27;20434;-37
2022/05/25 08:05:49;;;;;;;38.20;17.00;;;29.40;33.60;;;;;;5134294;27;20060;-37
2022/05/25 08:08:21;;;;;;;37.83;17.40;;;29.70;33.20;;;;;;5134628;27;20015;-37
2022/05/25 08:11:00;;;;;;;35.42;17.20;;;29.90;33.00;;;;;;5136209;27;20007;-39
2022/05/25 08:13:26;;;;;;;38.47;16.30;;;30.00;32.60;;;;;;5138514;27;20043;-40
2022/05/25 08:15:52;;;;;;;35.20;16.45;;;30.10;32.50;;;;;;5136545;27;20015;-38
2022/05/25 08:18:18;;;;;;;32.30;15.80;;;30.10;32.30;;;;;;5135110;27;20011;-37
2022/05/25 08:20:45;;;;;;;35.75;15.95;;;30.10;32.10;;;;;;5135236;27;20524;-41
2022/05/25 08:23:12;;;;;;;35.20;15.50;;;30.10;32.40;;;;;;5135960;27;20071;-38
2022/05/25 08:25:38;;;;;;;30.10;15.07;;;30.10;32.40;;;;;;5135751;27;20015;-37
2022/05/25 08:28:04;;;;;;;41.63;15.13;;;30.20;32.30;;;;;;5136660;27;20342;-39
2022/05/25 08:30:30;;;;;;;30.60;14.38;;;30.20;32.20;;;;;;5136730;27;20023;-37
2022/05/25 08:32:56;;;;;;;30.13;13.60;;;30.30;32.10;;;;;;5135459;27;20019;-39
2022/05/25 08:35:22;;;;;;;30.25;14.02;;;30.30;32.00;;;;;;5137592;27;20027;-36
2022/05/25 08:37:48;;;;;;;28.20;12.85;;;30.50;31.90;;;;;;5137021;27;20029;-36
2022/05/25 08:40:18;;;;;;;26.10;12.88;;;30.50;31.80;;;;;;5137308;27;20030;-37
2022/05/25 08:42:59;;;;;;;27.10;12.38;;;30.50;31.70;;;;;;5138155;27;20019;-37
2022/05/25 08:45:38;;;;;;;23.08;11.50;;;30.50;31.70;;;;;;5136635;27;20079;-37
2022/05/25 08:48:05;;;;;;;25.48;12.30;;;30.60;31.70;;;;;;5137866;27;20474;-37
2022/05/25 08:50:31;;;;;;;25.10;11.43;;;30.60;31.60;;;;;;5137275;27;20090;-40
2022/05/25 08:52:58;;;;;;;26.30;11.63;;;30.60;31.50;;;;;;5138021;27;20019;-38
2022/05/25 08:55:44;;;;;;;24.02;11.10;;;30.70;31.60;;;;;;5138656;27;20011;-43
2022/05/25 08:58:11;;;;;;;21.83;11.07;;;30.70;31.40;;;;;;5137169;27;20020;-43
2022/05/25 09:00:37;;;;;;;23.10;10.70;;;30.70;31.60;;;;;;5138526;27;20063;-37
2022/05/25 09:03:12;;;;;;;22.30;10.65;;;30.60;31.60;;;;;;5119554;27;20022;-41
2022/05/25 09:05:42;;;;;;;19.85;10.13;;;30.50;31.40;;;;;;5138354;27;20019;-38
2022/05/25 09:08:29;;;;;;;24.33;10.82;;;30.30;31.90;;;;;;5137912;27;20163;-38
2022/05/25 09:11:01;;;;;;;22.45;9.70;;;30.20;32.10;;;;;;5135229;27;20473;-37
2022/05/25 09:13:51;;;;;;;19.80;9.43;;;30.20;32.20;;;;;;5135459;27;20377;-37
2022/05/25 09:16:18;;;;;;;21.70;8.85;;;30.20;32.10;;;;;;5136347;27;20087;-40
2022/05/25 09:18:50;;;;;;;17.63;9.27;;;30.20;31.90;;;;;;5118640;27;20069;-38
2022/05/25 09:21:19;;;;;;;17.73;9.60;;;30.10;32.00;;;;;;5136554;27;20110;-39
2022/05/25 09:23:45;;;;;;;21.45;8.50;;;29.90;32.30;;;;;;5118539;27;20036;-37
2022/05/25 09:26:13;;;;;;;19.10;9.10;;;29.70;32.70;;;;;;5134881;27;20011;-38
2022/05/25 09:28:42;;;;;;;23.30;8.23;;;29.70;32.60;;;;;;5135434;27;20107;-38
2022/05/25 09:31:08;;;;;;;19.75;8.15;;;29.80;32.50;;;;;;5137995;27;20015;-40
2022/05/25 09:33:55;;;;;;;17.20;8.20;;;29.90;32.40;;;;;;5135645;27;20015;-37
2022/05/25 09:36:55;;;;;;;18.20;7.22;;;29.80;32.30;;;;;;5137103;27;20041;-39
2022/05/25 09:39:45;;;;;;;15.38;7.90;;;29.70;32.70;;;;;;5119291;27;20035;-39
2022/05/25 09:42:17;;;;;;;15.93;7.80;;;29.50;32.70;;;;;;5125136;27;20111;-37
2022/05/25 09:44:47;;;;;;;17.48;7.60;;;29.40;33.00;;;;;;5134383;27;20059;-39
2022/05/25 09:47:24;;;;;;;15.68;7.65;;;29.30;33.10;;;;;;5134043;27;20012;-37
2022/05/25 09:49:52;;;;;;;15.27;7.53;;;29.40;33.00;;;;;;5134181;27;20076;-37
2022/05/25 09:52:54;;;;;;;13.57;6.93;;;29.40;33.10;;;;;;5133522;27;20020;-37
2022/05/25 09:55:25;;;;;;;18.52;7.40;;;29.30;33.00;;;;;;5059167;28;20067;-37
2022/05/25 09:58:04;;;;;;;14.38;6.30;;;29.40;33.00;;;;;;5071312;28;20048;-36
2022/05/25 10:00:34;;;;;;;18.88;6.97;;;29.40;32.90;;;;;;5057195;28;20062;-37
2022/05/25 10:03:03;;;;;;;14.48;6.60;;;29.40;32.80;;;;;;5071602;28;20127;-38
2022/05/25 10:05:32;;;;;;;12.75;6.50;;;29.30;32.80;;;;;;5071943;28;20105;-40
2022/05/25 10:08:15;;;;;;;14.00;6.97;;;29.10;33.00;;;;;;5072400;28;20491;-37
2022/05/25 10:11:09;;;;;;;14.15;6.07;;;29.00;33.30;;;;;;5055677;28;20039;-37
2022/05/25 10:13:44;;;;;;;15.55;6.30;;;28.80;33.50;;;;;;5057261;28;20078;-37
2022/05/25 10:16:27;;;;;;;15.68;6.78;;;28.60;33.80;;;;;;5071608;28;20102;-36
2022/05/25 10:18:52;;;;;;;15.25;5.90;;;28.50;34.00;;;;;;5071402;28;20123;-35
2022/05/25 10:21:29;;;;;;;16.23;6.07;;;28.50;34.30;;;;;;5071418;28;20067;-36
2022/05/25 10:23:57;;;;;;;11.55;5.63;;;28.30;34.10;;;;;;5071027;28;20032;-37
2022/05/25 10:26:47;;;;;;;13.32;5.72;;;28.30;34.30;;;;;;5071306;28;20104;-36
2022/05/25 10:38:28;;;;;;;12.80;5.53;;;28.30;34.00;;;;;;5134657;28;20030;-38
2022/05/25 10:40:58;;;;;;;12.38;4.85;;;28.30;34.00;;;;;;5135576;27;20022;-38
2022/05/25 10:43:28;;;;;;;11.55;4.95;;;28.30;34.00;;;;;;5136634;27;20022;-37
2022/05/25 10:45:54;;;;;;;10.90;5.00;;;28.30;34.00;;;;;;5136144;27;20027;-36
2022/05/25 10:48:43;;;;;;;10.98;4.95;;;28.20;34.10;;;;;;5134887;28;20450;-37
2022/05/25 10:51:12;;;;;;;10.32;5.00;;;28.20;34.10;;;;;;5133741;28;20019;-38
2022/05/25 10:57:07;;;;;;;10.90;4.45;;;28.10;34.10;;;;;;5134913;28;20057;-38
2022/05/25 10:59:33;;;;;;;10.27;4.20;;;28.10;34.10;;;;;;5103109;28;20084;-37
2022/05/25 11:02:09;;;;;;;11.68;4.57;;;28.10;34.00;;;;;;5135440;28;20027;-37
2022/05/25 11:04:52;;;;;;;8.52;4.25;;;28.10;34.10;;;;;;5134478;28;20016;-38
2022/05/25 11:07:35;;;;;;;11.25;4.43;;;28.00;34.10;;;;;;5134291;28;20015;-39
2022/05/25 11:10:18;;;;;;;12.73;4.57;;;28.00;34.20;;;;;;5134216;28;20031;-37
2022/05/25 11:13:22;;;;;;;11.13;4.43;;;27.90;34.30;;;;;;5135714;28;20029;-37
2022/05/25 11:15:54;;;;;;;9.02;4.10;;;27.80;34.30;;;;;;5135447;28;20093;-37
2022/05/25 11:18:54;;;;;;;10.32;4.15;;;27.80;34.50;;;;;;5135534;28;20019;-36
2022/05/25 11:21:36;;;;;;;10.05;4.10;;;27.70;34.50;;;;;;5134725;27;20047;-36
2022/05/25 11:24:23;;;;;;;7.47;3.65;;;27.70;34.60;;;;;;5133237;28;20102;-35
2022/05/25 11:27:01;;;;;;;8.93;3.42;;;27.60;34.60;;;;;;5132626;28;20094;-36
2022/05/25 11:29:33;;;;;;;8.98;3.95;;;27.50;34.60;;;;;;5134837;27;20015;-38
2022/05/25 11:32:17;;;;;;;12.18;3.88;;;27.40;34.80;;;;;;5135149;28;20098;-37
2022/05/25 11:35:14;;;;;;;9.68;3.60;;;27.40;35.10;;;;;;5135554;27;20019;-37
2022/05/25 11:37:51;;;;;;;8.48;4.00;;;27.30;35.00;;;;;;5136952;27;20106;-36
2022/05/25 11:40:27;;;;;;;8.00;3.45;;;27.40;35.10;;;;;;5137637;27;20030;-36
2022/05/25 11:43:11;;;;;;;10.82;3.63;;;27.30;35.00;;;;;;5137720;27;20035;-37
2022/05/25 11:46:22;;;;;;;8.43;3.65;;;27.30;34.90;;;;;;5137414;27;20334;-39
2022/05/25 11:48:47;;;;;;;8.40;3.38;;;27.30;34.80;;;;;;5137926;27;20019;-37
2022/05/25 11:51:20;;;;;;;8.05;3.40;;;27.30;34.80;;;;;;5137506;27;20015;-39
2022/05/25 11:54:34;;;;;;;7.22;3.40;;;27.30;34.80;;;;;;5137874;27;20028;-37
2022/05/25 11:57:20;;;;;;;7.03;3.33;;;27.30;34.90;;;;;;5121060;27;20027;-37
2022/05/25 12:00:26;;;;;;;7.90;3.25;;;27.30;34.80;;;;;;5136580;27;20116;-37
2022/05/25 12:03:16;;;;;;;6.03;2.83;;;27.20;34.80;;;;;;5134243;27;20088;-37
2022/05/25 12:06:26;;;;;;;7.45;3.25;;;27.20;34.90;;;;;;5137410;27;20477;-37
2022/05/25 12:08:58;;;;;;;6.43;3.10;;;27.10;34.90;;;;;;5073113;27;20039;-36
2022/05/25 12:11:48;;;;;;;7.20;3.03;;;27.10;34.90;;;;;;5137305;27;20022;-37
2022/05/25 12:14:28;;;;;;;7.10;3.00;;;27.10;35.00;;;;;;5137020;27;20098;-37
2022/05/25 12:16:58;;;;;;;6.10;2.90;;;27.10;35.00;;;;;;5136453;27;20485;-37
2022/05/25 12:19:25;;;;;;;10.00;2.92;;;27.10;35.00;;;;;;5136669;27;20019;-36
2022/05/25 12:21:53;;;;;;;8.38;3.10;;;27.10;34.90;;;;;;5135122;27;20050;-36
2022/05/25 12:24:24;;;;;;;7.35;3.10;;;27.10;35.00;;;;;;5119021;27;20088;-37
2022/05/25 12:26:49;;;;;;;6.25;2.42;;;27.00;34.90;;;;;;5119680;27;20067;-39
2022/05/25 12:29:24;;;;;;;7.60;2.60;;;27.00;34.90;;;;;;5119352;27;20465;-38
2022/05/25 12:31:53;;;;;;;5.53;2.65;;;27.00;34.90;;;;;;5136434;27;20015;-37
2022/05/25 12:34:24;;;;;;;6.72;2.30;;;27.00;34.90;;;;;;5137635;27;20016;-37
2022/05/25 12:36:51;;;;;;;6.65;2.90;;;27.00;34.90;;;;;;5137828;27;20020;-38
2022/05/25 12:39:43;;;;;;;5.70;2.60;;;27.00;34.80;;;;;;5136961;27;20016;-37
2022/05/25 12:42:23;;;;;;;6.28;2.60;;;27.00;34.70;;;;;;5125474;27;20035;-37
2022/05/25 12:50:33;;;;;;;8.32;2.25;;;27.00;34.70;;;;;;5137677;27;20053;-38
2022/05/25 12:53:26;;;;;;;5.10;2.60;;;27.00;34.60;;;;;;5138271;27;20086;-38
2022/05/25 12:55:59;;;;;;;5.88;2.15;;;27.00;34.60;;;;;;5139492;27;20011;-38
2022/05/25 12:58:55;;;;;;;5.35;2.40;;;27.10;34.60;;;;;;5137903;27;20031;-37
2022/05/25 13:01:27;;;;;;;6.72;2.25;;;27.10;34.50;;;;;;5138707;27;20084;-37
2022/05/25 13:03:56;;;;;;;4.45;2.17;;;27.00;34.50;;;;;;5139981;27;20046;-38
2022/05/25 13:06:34;;;;;;;6.47;2.53;;;27.00;34.50;;;;;;5139847;27;20011;-39
2022/05/25 13:09:28;;;;;;;5.25;2.28;;;27.00;34.50;;;;;;5138842;27;20020;-38
2022/05/25 13:11:58;;;;;;;6.15;1.92;;;26.90;34.50;;;;;;5137180;27;20103;-38
2022/05/25 13:14:24;;;;;;;6.53;2.30;;;26.90;34.50;;;;;;5137370;27;20020;-42
2022/05/25 13:16:58;;;;;;;6.25;2.40;;;27.00;34.60;;;;;;5138451;27;20426;-39
2022/05/25 13:19:32;;;;;;;5.60;1.95;;;27.00;34.40;;;;;;5139381;27;20473;-37
2022/05/25 13:22:02;;;;;;;4.35;1.85;;;27.00;34.30;;;;;;5139397;27;20099;-38
2022/05/25 13:24:41;;;;;;;4.82;2.10;;;27.00;34.20;;;;;;5138818;27;20015;-38
2022/05/25 13:27:24;;;;;;;5.15;1.80;;;27.00;34.20;;;;;;5137533;27;20058;-37
2022/05/25 13:30:24;;;;;;;3.08;1.67;;;27.00;34.10;;;;;;5138566;27;20015;-42
2022/05/25 13:32:52;;;;;;;4.00;1.75;;;26.90;34.10;;;;;;5139250;27;20031;-39
2022/05/25 13:35:23;;;;;;;5.50;1.90;;;27.00;34.10;;;;;;5119796;27;20106;-40
2022/05/25 13:38:07;;;;;;;5.22;1.80;;;27.00;34.00;;;;;;5136710;27;20019;-38
2022/05/25 13:40:48;;;;;;;4.97;1.95;;;27.00;34.10;;;;;;5118934;27;20022;-38
2022/05/25 13:43:21;;;;;;;4.38;1.92;;;26.90;34.00;;;;;;5137003;27;20034;-39